Hlavní strana
METAR-TAF:

METAR-TAF

Letiště :

Dar es Salaam, Tanzanie

zeměpisná šířka: 06-52S, zeměpisná délka: 039-12E, výška: 55 m

Aktuální stav počasí

Zpráva byla vytvořena před 1 hodinou a 28 minutami, v 15:00 UTC
Východojihovýchodní vítr 11 kt
Teplota 27°C
Vlhkost vzduchu 70%
Tlak 1017 hPa
Viditelnost 10 km a více
Skoro jasno ve výšce 1800 ft

METAR: HTDA 181500Z 12011KT 9999 FEW018 27/21 Q1017 NOSIG

Čas: 19:28 (16:28 UTC)

Předpověď počasí

Zpráva byla vytvořena před 11 hodinami a 28 minutami, v 05:00 UTC
Předpověď platná od 18 v 06 UTC do 19 v 12 UTC
Jižní vítr 5 kt
Viditelnost 10 km a více
Polojasno ve výšce 2000 ft
Změna
od 18 v 18 UTC do 18 v 21 UTC
Severní vítr kt

TAF: HTDA 180500Z 1806/1912 18005KT 9999 SCT020 BECMG 1818/1821 00000KT

Stav a předpovědi počasí z více než 4 000 letišť (zprávy METAR a TAF).

Červené a žluté tečky na mapě představují dostupné meteorologické stanice.

Když kurzor umístíte na tečku, zobrazí se název stanice.

Pak kliknutím zobrazíte stav a předpověď počasí.

Chcete-li změnit mapu, kliknutím na zelené tlačítko se znaménkem +mapu přiblížíte, kliknutím na zelené tlačítko se znaménkem – mapu oddálíte a kliknutím na zelené šipky přejdete na sousední mapy.


METAR-TAF: